sensor_id;sensor_type;location;lat;lon;timestamp;pressure;altitude;pressure_sealevel;temperature;humidity
83635;BME280;73596;49.482;11.238;2024-03-02T00:00:08;96986.00;;;5.02;95.17
83635;BME280;73596;49.482;11.238;2024-03-02T00:02:40;96982.59;;;5.01;95.36
83635;BME280;73596;49.482;11.238;2024-03-02T00:05:06;96981.78;;;5.01;95.36
83635;BME280;73596;49.482;11.238;2024-03-02T00:07:31;96981.78;;;5.01;95.67
83635;BME280;73596;49.482;11.238;2024-03-02T00:09:57;96975.03;;;5.00;95.32
83635;BME280;73596;49.482;11.238;2024-03-02T00:12:22;96981.91;;;4.99;96.11
83635;BME280;73596;49.482;11.238;2024-03-02T00:14:47;96970.84;;;4.99;95.82
83635;BME280;73596;49.482;11.238;2024-03-02T00:17:25;96978.50;;;4.99;95.80
83635;BME280;73596;49.482;11.238;2024-03-02T00:19:51;96971.78;;;4.98;95.91
83635;BME280;73596;49.482;11.238;2024-03-02T00:22:16;96975.94;;;4.99;96.31
83635;BME280;73596;49.482;11.238;2024-03-02T00:24:42;96969.22;;;4.98;96.27
83635;BME280;73596;49.482;11.238;2024-03-02T00:27:07;96964.19;;;4.96;95.81
83635;BME280;73596;49.482;11.238;2024-03-02T00:29:36;96971.03;;;4.96;96.40
83635;BME280;73596;49.482;11.238;2024-03-02T00:32:02;96972.69;;;4.97;95.83
83635;BME280;73596;49.482;11.238;2024-03-02T00:34:27;96968.47;;;4.96;96.02
83635;BME280;73596;49.482;11.238;2024-03-02T00:36:52;96970.94;;;4.97;96.54
83635;BME280;73596;49.482;11.238;2024-03-02T00:39:18;96965.00;;;4.97;96.43
83635;BME280;73596;49.482;11.238;2024-03-02T00:41:43;96970.13;;;4.97;96.42
83635;BME280;73596;49.482;11.238;2024-03-02T00:44:15;96979.53;;;4.96;96.92
83635;BME280;73596;49.482;11.238;2024-03-02T00:46:42;96970.94;;;4.97;96.47
83635;BME280;73596;49.482;11.238;2024-03-02T00:49:21;96974.41;;;4.96;96.80
83635;BME280;73596;49.482;11.238;2024-03-02T00:51:49;96973.59;;;4.96;97.36
83635;BME280;73596;49.482;11.238;2024-03-02T00:54:15;96977.91;;;4.95;97.02
83635;BME280;73596;49.482;11.238;2024-03-02T00:56:41;96970.31;;;4.94;96.40
83635;BME280;73596;49.482;11.238;2024-03-02T00:59:07;96971.97;;;4.95;96.94
83635;BME280;73596;49.482;11.238;2024-03-02T01:01:33;96967.75;;;4.94;96.69
83635;BME280;73596;49.482;11.238;2024-03-02T01:03:59;96972.88;;;4.94;96.81
83635;BME280;73596;49.482;11.238;2024-03-02T01:06:24;96978.72;;;4.96;96.61
83635;BME280;73596;49.482;11.238;2024-03-02T01:08:49;96971.97;;;4.95;96.28
83635;BME280;73596;49.482;11.238;2024-03-02T01:11:16;96972.78;;;4.95;96.15
83635;BME280;73596;49.482;11.238;2024-03-02T01:13:41;96976.06;;;4.97;96.76
83635;BME280;73596;49.482;11.238;2024-03-02T01:16:07;96976.16;;;4.96;96.33
83635;BME280;73596;49.482;11.238;2024-03-02T01:18:32;96985.47;;;4.97;96.39
83635;BME280;73596;49.482;11.238;2024-03-02T01:20:57;96982.09;;;4.96;95.69
83635;BME280;73596;49.482;11.238;2024-03-02T01:23:23;96989.88;;;4.95;95.43
83635;BME280;73596;49.482;11.238;2024-03-02T01:25:49;96993.03;;;4.98;95.41
83635;BME280;73596;49.482;11.238;2024-03-02T01:28:15;96977.59;;;5.00;96.18
83635;BME280;73596;49.482;11.238;2024-03-02T01:30:41;96975.88;;;5.00;96.80
83635;BME280;73596;49.482;11.238;2024-03-02T01:33:06;96972.47;;;5.00;96.57
83635;BME280;73596;49.482;11.238;2024-03-02T01:35:32;96974.09;;;5.01;97.06
83635;BME280;73596;49.482;11.238;2024-03-02T01:37:57;96976.78;;;4.99;97.07
83635;BME280;73596;49.482;11.238;2024-03-02T01:40:23;96980.25;;;4.98;97.25
83635;BME280;73596;49.482;11.238;2024-03-02T01:42:52;96975.94;;;4.99;96.66
83635;BME280;73596;49.482;11.238;2024-03-02T01:45:19;96975.25;;;4.97;96.66
83635;BME280;73596;49.482;11.238;2024-03-02T01:47:44;96971.84;;;4.96;96.81
83635;BME280;73596;49.482;11.238;2024-03-02T01:50:11;96971.97;;;4.95;97.37
83635;BME280;73596;49.482;11.238;2024-03-02T01:52:37;96969.31;;;4.96;97.27
83635;BME280;73596;49.482;11.238;2024-03-02T01:55:03;96969.41;;;4.95;97.18
83635;BME280;73596;49.482;11.238;2024-03-02T01:57:29;96968.69;;;4.93;96.66
83635;BME280;73596;49.482;11.238;2024-03-02T01:59:54;96970.31;;;4.94;97.20
83635;BME280;73596;49.482;11.238;2024-03-02T02:02:20;96964.50;;;4.92;96.43
83635;BME280;73596;49.482;11.238;2024-03-02T02:04:45;96969.72;;;4.90;96.54
83635;BME280;73596;49.482;11.238;2024-03-02T02:07:11;96971.47;;;4.90;96.23
83635;BME280;73596;49.482;11.238;2024-03-02T02:09:36;96978.31;;;4.89;95.67
83635;BME280;73596;49.482;11.238;2024-03-02T02:12:02;96970.50;;;4.91;95.99
83635;BME280;73596;49.482;11.238;2024-03-02T02:14:27;96979.97;;;4.90;96.18
83635;BME280;73596;49.482;11.238;2024-03-02T02:16:53;96978.09;;;4.92;96.01
83635;BME280;73596;49.482;11.238;2024-03-02T02:19:19;96982.41;;;4.92;96.43
83635;BME280;73596;49.482;11.238;2024-03-02T02:21:44;96973.91;;;4.91;96.30
83635;BME280;73596;49.482;11.238;2024-03-02T02:24:09;96973.81;;;4.93;96.41
83635;BME280;73596;49.482;11.238;2024-03-02T02:26:34;96983.22;;;4.92;96.72
83635;BME280;73596;49.482;11.238;2024-03-02T02:29:00;96978.94;;;4.93;96.91
83635;BME280;73596;49.482;11.238;2024-03-02T02:31:25;96978.09;;;4.92;97.36
83635;BME280;73596;49.482;11.238;2024-03-02T02:33:50;96989.25;;;4.91;96.71
83635;BME280;73596;49.482;11.238;2024-03-02T02:36:16;96986.69;;;4.91;96.94
83635;BME280;73596;49.482;11.238;2024-03-02T02:38:44;96984.13;;;4.91;97.59
83635;BME280;73596;49.482;11.238;2024-03-02T02:41:11;96991.81;;;4.91;97.44
83635;BME280;73596;49.482;11.238;2024-03-02T02:43:37;96982.50;;;4.90;97.57
83635;BME280;73596;49.482;11.238;2024-03-02T02:46:02;96990.97;;;4.91;97.58
83635;BME280;73596;49.482;11.238;2024-03-02T02:48:27;96989.38;;;4.90;97.73
83635;BME280;73596;49.482;11.238;2024-03-02T02:50:53;96985.88;;;4.91;97.30
83635;BME280;73596;49.482;11.238;2024-03-02T02:53:18;96988.53;;;4.89;97.59
83635;BME280;73596;49.482;11.238;2024-03-02T02:55:43;96977.47;;;4.89;97.32
83635;BME280;73596;49.482;11.238;2024-03-02T02:58:12;96979.13;;;4.90;97.31
83635;BME280;73596;49.482;11.238;2024-03-02T03:00:37;96982.50;;;4.90;97.07
83635;BME280;73596;49.482;11.238;2024-03-02T03:03:03;96983.22;;;4.92;97.46
83635;BME280;73596;49.482;11.238;2024-03-02T03:05:29;96983.22;;;4.92;97.62
83635;BME280;73596;49.482;11.238;2024-03-02T03:07:54;96986.63;;;4.93;97.67
83635;BME280;73596;49.482;11.238;2024-03-02T03:10:19;96983.22;;;4.92;97.61
83635;BME280;73596;49.482;11.238;2024-03-02T03:12:47;96988.34;;;4.92;97.82
83635;BME280;73596;49.482;11.238;2024-03-02T03:15:12;96983.31;;;4.91;97.86
83635;BME280;73596;49.482;11.238;2024-03-02T03:17:37;96985.78;;;4.92;97.39
83635;BME280;73596;49.482;11.238;2024-03-02T03:20:03;96986.63;;;4.93;97.95
83635;BME280;73596;49.482;11.238;2024-03-02T03:22:30;96982.41;;;4.92;97.97
83635;BME280;73596;49.482;11.238;2024-03-02T03:24:55;96987.53;;;4.92;97.70
83635;BME280;73596;49.482;11.238;2024-03-02T03:27:20;96978.94;;;4.93;97.69
83635;BME280;73596;49.482;11.238;2024-03-02T03:29:46;96989.16;;;4.93;97.96
83635;BME280;73596;49.482;11.238;2024-03-02T03:32:11;96988.34;;;4.92;97.42
83635;BME280;73596;49.482;11.238;2024-03-02T03:34:37;96986.69;;;4.91;97.10
83635;BME280;73596;49.482;11.238;2024-03-02T03:37:02;96986.81;;;4.90;97.01
83635;BME280;73596;49.482;11.238;2024-03-02T03:39:28;96996.94;;;4.91;96.98
83635;BME280;73596;49.482;11.238;2024-03-02T03:41:54;96992.63;;;4.92;96.56
83635;BME280;73596;49.482;11.238;2024-03-02T03:44:19;96991.81;;;4.91;96.93
83635;BME280;73596;49.482;11.238;2024-03-02T03:46:44;96995.31;;;4.90;95.95
83635;BME280;73596;49.482;11.238;2024-03-02T03:49:09;96995.19;;;4.92;96.22
83635;BME280;73596;49.482;11.238;2024-03-02T03:51:34;96999.47;;;4.91;95.79
83635;BME280;73596;49.482;11.238;2024-03-02T03:54:00;96999.47;;;4.91;95.88
83635;BME280;73596;49.482;11.238;2024-03-02T03:56:26;96992.53;;;4.93;95.58
83635;BME280;73596;49.482;11.238;2024-03-02T03:58:51;96990.91;;;4.92;95.67
83635;BME280;73596;49.482;11.238;2024-03-02T04:01:17;96992.63;;;4.92;95.06
83635;BME280;73596;49.482;11.238;2024-03-02T04:03:42;96986.69;;;4.91;94.87
83635;BME280;73596;49.482;11.238;2024-03-02T04:06:08;96989.25;;;4.91;94.80
83635;BME280;73596;49.482;11.238;2024-03-02T04:08:33;96985.88;;;4.91;94.36
83635;BME280;73596;49.482;11.238;2024-03-02T04:10:58;96986.69;;;4.91;94.02
83635;BME280;73596;49.482;11.238;2024-03-02T04:13:23;96994.38;;;4.91;94.12
83635;BME280;73596;49.482;11.238;2024-03-02T04:15:49;96990.97;;;4.91;93.74
83635;BME280;73596;49.482;11.238;2024-03-02T04:18:14;96987.63;;;4.90;94.31
83635;BME280;73596;49.482;11.238;2024-03-02T04:20:39;96990.97;;;4.91;94.68
83635;BME280;73596;49.482;11.238;2024-03-02T04:23:04;96992.75;;;4.90;94.30
83635;BME280;73596;49.482;11.238;2024-03-02T04:25:30;96992.75;;;4.90;93.40
83635;BME280;73596;49.482;11.238;2024-03-02T04:27:55;96994.28;;;4.93;94.41
83635;BME280;73596;49.482;11.238;2024-03-02T04:30:20;96999.19;;;4.96;95.01
83635;BME280;73596;49.482;11.238;2024-03-02T04:32:46;96986.19;;;4.99;96.34
83635;BME280;73596;49.482;11.238;2024-03-02T04:35:12;96998.06;;;5.00;97.04
83635;BME280;73596;49.482;11.238;2024-03-02T04:37:40;96983.63;;;4.99;96.99
83635;BME280;73596;49.482;11.238;2024-03-02T04:40:06;96997.34;;;4.98;97.67
83635;BME280;73596;49.482;11.238;2024-03-02T04:42:34;97001.47;;;5.00;97.76
83635;BME280;73596;49.482;11.238;2024-03-02T04:45:00;97004.09;;;4.99;97.34
83635;BME280;73596;49.482;11.238;2024-03-02T04:47:25;97006.78;;;4.97;98.03
83635;BME280;73596;49.482;11.238;2024-03-02T04:49:50;97009.53;;;4.94;97.52
83635;BME280;73596;49.482;11.238;2024-03-02T04:52:16;97020.78;;;4.92;97.93
83635;BME280;73596;49.482;11.238;2024-03-02T04:54:42;97013.41;;;4.87;97.58
83635;BME280;73596;49.482;11.238;2024-03-02T04:57:26;97018.72;;;4.84;97.38
83635;BME280;73596;49.482;11.238;2024-03-02T04:59:51;97014.72;;;4.80;97.00
83635;BME280;73596;49.482;11.238;2024-03-02T05:02:16;97012.38;;;4.77;97.15
83635;BME280;73596;49.482;11.238;2024-03-02T05:04:42;97013.47;;;4.73;96.99
83635;BME280;73596;49.482;11.238;2024-03-02T05:07:07;97017.03;;;4.71;96.30
83635;BME280;73596;49.482;11.238;2024-03-02T05:09:32;97014.72;;;4.68;96.50
83635;BME280;73596;49.482;11.238;2024-03-02T05:11:57;97017.47;;;4.65;96.40
83635;BME280;73596;49.482;11.238;2024-03-02T05:14:41;97014.25;;;4.61;96.36
83635;BME280;73596;49.482;11.238;2024-03-02T05:17:06;97018.78;;;4.58;96.61
83635;BME280;73596;49.482;11.238;2024-03-02T05:19:31;97013.84;;;4.55;96.33
83635;BME280;73596;49.482;11.238;2024-03-02T05:21:57;97019.03;;;4.53;96.53
83635;BME280;73596;49.482;11.238;2024-03-02T05:24:22;97020.88;;;4.51;96.63
83635;BME280;73596;49.482;11.238;2024-03-02T05:26:47;97026.81;;;4.52;97.13
83635;BME280;73596;49.482;11.238;2024-03-02T05:29:12;97028.56;;;4.51;97.24
83635;BME280;73596;49.482;11.238;2024-03-02T05:31:38;97029.56;;;4.48;97.52
83635;BME280;73596;49.482;11.238;2024-03-02T05:34:03;97027.94;;;4.47;97.28
83635;BME280;73596;49.482;11.238;2024-03-02T05:36:28;97029.88;;;4.44;97.56
83635;BME280;73596;49.482;11.238;2024-03-02T05:38:54;97027.41;;;4.42;97.36
83635;BME280;73596;49.482;11.238;2024-03-02T05:41:19;97027.50;;;4.41;97.66
83635;BME280;73596;49.482;11.238;2024-03-02T05:43:44;97031.91;;;4.39;97.74
83635;BME280;73596;49.482;11.238;2024-03-02T05:46:10;97034.63;;;4.36;97.60
83635;BME280;73596;49.482;11.238;2024-03-02T05:48:35;97038.22;;;4.33;97.82
83635;BME280;73596;49.482;11.238;2024-03-02T05:51:00;97042.59;;;4.31;98.24
83635;BME280;73596;49.482;11.238;2024-03-02T05:53:25;97040.22;;;4.28;98.33
83635;BME280;73596;49.482;11.238;2024-03-02T05:55:51;97037.78;;;4.27;97.98
83635;BME280;73596;49.482;11.238;2024-03-02T05:58:21;97035.31;;;4.25;98.06
83635;BME280;73596;49.482;11.238;2024-03-02T06:00:49;97044.72;;;4.25;98.27
83635;BME280;73596;49.482;11.238;2024-03-02T06:03:14;97044.91;;;4.22;97.80
83635;BME280;73596;49.482;11.238;2024-03-02T06:05:39;97040.72;;;4.21;98.43
83635;BME280;73596;49.482;11.238;2024-03-02T06:08:06;97039.09;;;4.20;98.15
83635;BME280;73596;49.482;11.238;2024-03-02T06:10:32;97038.34;;;4.18;98.65
83635;BME280;73596;49.482;11.238;2024-03-02T06:12:57;97036.72;;;4.17;98.29
83635;BME280;73596;49.482;11.238;2024-03-02T06:15:24;97034.16;;;4.17;98.45
83635;BME280;73596;49.482;11.238;2024-03-02T06:17:49;97034.16;;;4.17;98.32
83635;BME280;73596;49.482;11.238;2024-03-02T06:20:15;97036.78;;;4.15;98.91
83635;BME280;73596;49.482;11.238;2024-03-02T06:22:40;97031.78;;;4.14;98.35
83635;BME280;73596;49.482;11.238;2024-03-02T06:25:06;97038.03;;;4.10;98.28
83635;BME280;73596;49.482;11.238;2024-03-02T06:27:31;97040.56;;;4.10;97.98
83635;BME280;73596;49.482;11.238;2024-03-02T06:29:56;97040.47;;;4.11;98.27
83635;BME280;73596;49.482;11.238;2024-03-02T06:32:21;97042.31;;;4.09;98.08
83635;BME280;73596;49.482;11.238;2024-03-02T06:34:48;97032.91;;;4.10;97.79
83635;BME280;73596;49.482;11.238;2024-03-02T06:37:13;97023.97;;;4.03;97.62
83635;BME280;73596;49.482;11.238;2024-03-02T06:39:38;97030.53;;;4.07;97.28
83635;BME280;73596;49.482;11.238;2024-03-02T06:42:04;97036.38;;;4.09;97.38
83635;BME280;73596;49.482;11.238;2024-03-02T06:44:29;97035.34;;;4.11;97.39
83635;BME280;73596;49.482;11.238;2024-03-02T06:46:54;97043.75;;;4.13;97.92
83635;BME280;73596;49.482;11.238;2024-03-02T06:49:19;97032.63;;;4.14;98.16
83635;BME280;73596;49.482;11.238;2024-03-02T06:51:45;97040.19;;;4.16;98.47
83635;BME280;73596;49.482;11.238;2024-03-02T06:54:10;97031.59;;;4.17;98.20
83635;BME280;73596;49.482;11.238;2024-03-02T06:56:35;97036.91;;;4.14;98.45
83635;BME280;73596;49.482;11.238;2024-03-02T06:59:00;97037.63;;;4.16;97.92
83635;BME280;73596;49.482;11.238;2024-03-02T07:01:26;97045.09;;;4.19;98.06
83635;BME280;73596;49.482;11.238;2024-03-02T07:03:51;97039.88;;;4.20;98.44
83635;BME280;73596;49.482;11.238;2024-03-02T07:06:17;97030.50;;;4.21;98.93
83635;BME280;73596;49.482;11.238;2024-03-02T07:08:42;97042.25;;;4.23;98.80
83635;BME280;73596;49.482;11.238;2024-03-02T07:11:07;97042.38;;;4.22;98.65
83635;BME280;73596;49.482;11.238;2024-03-02T07:13:33;97045.00;;;4.20;98.56
83635;BME280;73596;49.482;11.238;2024-03-02T07:15:58;97042.38;;;4.22;97.91
83635;BME280;73596;49.482;11.238;2024-03-02T07:18:30;97043.97;;;4.23;98.10
83635;BME280;73596;49.482;11.238;2024-03-02T07:20:56;97047.19;;;4.26;97.86
83635;BME280;73596;49.482;11.238;2024-03-02T07:23:23;97045.34;;;4.28;97.65
83635;BME280;73596;49.482;11.238;2024-03-02T07:25:52;97043.63;;;4.29;97.25
83635;BME280;73596;49.482;11.238;2024-03-02T07:28:19;97037.31;;;4.34;97.66
83635;BME280;73596;49.482;11.238;2024-03-02T07:30:45;97051.63;;;4.37;97.17
83635;BME280;73596;49.482;11.238;2024-03-02T07:33:10;97049.78;;;4.39;96.48
83635;BME280;73596;49.482;11.238;2024-03-02T07:35:35;97053.09;;;4.54;97.21
83635;BME280;73596;49.482;11.238;2024-03-02T07:38:01;97050.91;;;4.62;97.49
83635;BME280;73596;49.482;11.238;2024-03-02T07:40:26;97061.34;;;4.71;97.56
83635;BME280;73596;49.482;11.238;2024-03-02T07:42:52;97051.97;;;4.84;98.23
83635;BME280;73596;49.482;11.238;2024-03-02T07:45:17;97052.63;;;4.88;97.14
83635;BME280;73596;49.482;11.238;2024-03-02T07:47:42;97055.59;;;5.07;97.61
83635;BME280;73596;49.482;11.238;2024-03-02T07:50:08;97059.81;;;5.21;98.63
83635;BME280;73596;49.482;11.238;2024-03-02T07:52:34;97056.84;;;5.27;97.60
83635;BME280;73596;49.482;11.238;2024-03-02T07:54:59;97059.53;;;5.38;97.75
83635;BME280;73596;49.482;11.238;2024-03-02T07:57:25;97062.91;;;5.38;96.28
83635;BME280;73596;49.482;11.238;2024-03-02T07:59:50;97060.25;;;5.40;94.94
83635;BME280;73596;49.482;11.238;2024-03-02T08:02:16;97056.75;;;5.53;95.68
83635;BME280;73596;49.482;11.238;2024-03-02T08:04:41;97064.00;;;5.72;95.65
83635;BME280;73596;49.482;11.238;2024-03-02T08:07:07;97063.50;;;5.79;96.14
83635;BME280;73596;49.482;11.238;2024-03-02T08:09:32;97060.84;;;5.81;94.34
83635;BME280;73596;49.482;11.238;2024-03-02T08:11:57;97062.28;;;5.85;94.09
83635;BME280;73596;49.482;11.238;2024-03-02T08:14:23;97066.38;;;5.88;94.52
83635;BME280;73596;49.482;11.238;2024-03-02T08:16:48;97065.16;;;5.93;94.32
83635;BME280;73596;49.482;11.238;2024-03-02T08:19:14;97063.91;;;5.99;93.28
83635;BME280;73596;49.482;11.238;2024-03-02T08:21:39;97062.34;;;6.09;93.14
83635;BME280;73596;49.482;11.238;2024-03-02T08:24:05;97060.59;;;6.22;93.87
83635;BME280;73596;49.482;11.238;2024-03-02T08:26:31;97059.09;;;6.30;93.50
83635;BME280;73596;49.482;11.238;2024-03-02T08:28:57;97068.00;;;6.37;93.27
83635;BME280;73596;49.482;11.238;2024-03-02T08:31:23;97061.41;;;6.46;92.96
83635;BME280;73596;49.482;11.238;2024-03-02T08:33:48;97062.72;;;6.52;92.35
83635;BME280;73596;49.482;11.238;2024-03-02T08:36:13;97057.38;;;6.55;92.09
83635;BME280;73596;49.482;11.238;2024-03-02T08:38:39;97059.28;;;6.64;92.24
83635;BME280;73596;49.482;11.238;2024-03-02T08:41:04;97069.81;;;6.72;91.62
83635;BME280;73596;49.482;11.238;2024-03-02T08:43:30;97066.09;;;6.76;91.55
83635;BME280;73596;49.482;11.238;2024-03-02T08:45:55;97063.09;;;6.82;91.18
83635;BME280;73596;49.482;11.238;2024-03-02T08:48:21;97057.63;;;6.86;90.73
83635;BME280;73596;49.482;11.238;2024-03-02T08:50:46;97060.69;;;6.91;90.78
83635;BME280;73596;49.482;11.238;2024-03-02T08:53:11;97065.47;;;6.96;90.87
83635;BME280;73596;49.482;11.238;2024-03-02T08:55:37;97066.22;;;6.98;90.49
83635;BME280;73596;49.482;11.238;2024-03-02T08:58:02;97063.56;;;7.11;91.08
83635;BME280;73596;49.482;11.238;2024-03-02T09:00:28;97067.66;;;7.24;90.21
83635;BME280;73596;49.482;11.238;2024-03-02T09:02:54;97063.63;;;7.33;89.92
83635;BME280;73596;49.482;11.238;2024-03-02T09:05:19;97060.81;;;7.47;89.42
83635;BME280;73596;49.482;11.238;2024-03-02T09:07:44;97071.81;;;7.60;89.11
83635;BME280;73596;49.482;11.238;2024-03-02T09:10:10;97069.16;;;7.84;88.67
83635;BME280;73596;49.482;11.238;2024-03-02T09:12:35;97072.53;;;7.95;87.07
83635;BME280;73596;49.482;11.238;2024-03-02T09:15:01;97074.53;;;8.03;86.98
83635;BME280;73596;49.482;11.238;2024-03-02T09:17:28;97076.63;;;8.09;86.41
83635;BME280;73596;49.482;11.238;2024-03-02T09:19:53;97078.13;;;8.22;86.39
83635;BME280;73596;49.482;11.238;2024-03-02T09:22:19;97076.75;;;8.29;85.39
83635;BME280;73596;49.482;11.238;2024-03-02T09:24:44;97077.78;;;8.38;85.32
83635;BME280;73596;49.482;11.238;2024-03-02T09:27:10;97069.97;;;8.40;86.12
83635;BME280;73596;49.482;11.238;2024-03-02T09:29:36;97080.44;;;8.48;85.35
83635;BME280;73596;49.482;11.238;2024-03-02T09:32:02;97071.66;;;8.50;84.22
83635;BME280;73596;49.482;11.238;2024-03-02T09:34:27;97072.50;;;8.51;84.45
83635;BME280;73596;49.482;11.238;2024-03-02T09:36:52;97074.69;;;8.55;84.17
83635;BME280;73596;49.482;11.238;2024-03-02T09:39:18;97068.25;;;8.61;84.47
83635;BME280;73596;49.482;11.238;2024-03-02T09:41:43;97070.22;;;8.68;83.63
83635;BME280;73596;49.482;11.238;2024-03-02T09:44:09;97069.81;;;8.84;82.85
83635;BME280;73596;49.482;11.238;2024-03-02T09:46:34;97060.03;;;8.99;82.88
83635;BME280;73596;49.482;11.238;2024-03-02T09:49:01;97062.38;;;9.02;82.48
83635;BME280;73596;49.482;11.238;2024-03-02T09:51:27;97056.19;;;8.93;82.48
83635;BME280;73596;49.482;11.238;2024-03-02T09:53:54;97061.06;;;9.07;81.98
83635;BME280;73596;49.482;11.238;2024-03-02T09:56:21;97051.41;;;9.20;80.97
83635;BME280;73596;49.482;11.238;2024-03-02T09:58:47;97051.72;;;9.27;80.94
83635;BME280;73596;49.482;11.238;2024-03-02T10:01:12;97045.09;;;9.34;81.06
83635;BME280;73596;49.482;11.238;2024-03-02T10:03:38;97051.50;;;9.39;81.31
83635;BME280;73596;49.482;11.238;2024-03-02T10:06:24;97043.25;;;9.66;79.98
83635;BME280;73596;49.482;11.238;2024-03-02T10:08:50;97042.25;;;9.57;79.63
83635;BME280;73596;49.482;11.238;2024-03-02T10:11:31;97043.59;;;9.52;79.75
83635;BME280;73596;49.482;11.238;2024-03-02T10:14:10;97042.63;;;9.74;79.18
83635;BME280;73596;49.482;11.238;2024-03-02T10:16:36;97040.78;;;9.65;79.73
83635;BME280;73596;49.482;11.238;2024-03-02T10:19:22;97038.41;;;9.73;79.01
83635;BME280;73596;49.482;11.238;2024-03-02T10:21:48;97035.34;;;9.88;78.50
83635;BME280;73596;49.482;11.238;2024-03-02T10:24:17;97042.41;;;9.86;78.64
83635;BME280;73596;49.482;11.238;2024-03-02T10:26:43;97032.88;;;9.87;78.85
83635;BME280;73596;49.482;11.238;2024-03-02T10:29:09;97035.03;;;9.82;79.65
83635;BME280;73596;49.482;11.238;2024-03-02T10:31:37;97036.09;;;9.79;79.72
83635;BME280;73596;49.482;11.238;2024-03-02T10:34:03;97035.97;;;9.71;80.74
83635;BME280;73596;49.482;11.238;2024-03-02T10:36:29;97038.00;;;9.77;79.60
83635;BME280;73596;49.482;11.238;2024-03-02T10:38:56;97036.97;;;9.89;78.59
83635;BME280;73596;49.482;11.238;2024-03-02T10:41:26;97044.03;;;9.87;79.53
83635;BME280;73596;49.482;11.238;2024-03-02T10:43:56;97038.22;;;9.95;78.14
83635;BME280;73596;49.482;11.238;2024-03-02T10:46:28;97044.06;;;9.97;78.95
83635;BME280;73596;49.482;11.238;2024-03-02T10:48:55;97041.75;;;9.94;79.41
83635;BME280;73596;49.482;11.238;2024-03-02T10:51:20;97038.09;;;9.96;79.69
83635;BME280;73596;49.482;11.238;2024-03-02T10:53:45;97038.88;;;9.97;79.32
83635;BME280;73596;49.482;11.238;2024-03-02T10:56:16;97034.03;;;10.03;78.78
83635;BME280;73596;49.482;11.238;2024-03-02T10:58:47;97038.78;;;9.98;79.37
83635;BME280;73596;49.482;11.238;2024-03-02T11:01:16;97020.84;;;9.97;78.99
83635;BME280;73596;49.482;11.238;2024-03-02T11:03:42;97024.16;;;10.08;77.66
83635;BME280;73596;49.482;11.238;2024-03-02T11:06:08;97024.06;;;10.19;77.93
83635;BME280;73596;49.482;11.238;2024-03-02T11:08:36;97024.47;;;10.25;78.02
83635;BME280;73596;49.482;11.238;2024-03-02T11:11:07;97022.03;;;10.13;79.01
83635;BME280;73596;49.482;11.238;2024-03-02T11:13:36;97015.66;;;10.27;77.85
83635;BME280;73596;49.482;11.238;2024-03-02T11:16:06;97022.88;;;10.43;76.26
83635;BME280;73596;49.482;11.238;2024-03-02T11:18:34;97022.09;;;10.52;76.23
83635;BME280;73596;49.482;11.238;2024-03-02T11:20:59;97015.44;;;10.49;76.95
83635;BME280;73596;49.482;11.238;2024-03-02T11:23:32;97022.09;;;10.42;76.90
83635;BME280;73596;49.482;11.238;2024-03-02T11:26:20;97021.53;;;10.48;77.49
83635;BME280;73596;49.482;11.238;2024-03-02T11:28:46;97021.53;;;10.48;77.90
83635;BME280;73596;49.482;11.238;2024-03-02T11:31:11;97017.97;;;10.30;78.11
83635;BME280;73596;49.482;11.238;2024-03-02T11:33:37;97021.38;;;10.31;77.73
83635;BME280;73596;49.482;11.238;2024-03-02T11:36:02;97013.25;;;10.45;77.73
83635;BME280;73596;49.482;11.238;2024-03-02T11:38:29;97015.97;;;10.43;77.84
83635;BME280;73596;49.482;11.238;2024-03-02T11:40:55;97013.38;;;10.53;77.35
83635;BME280;73596;49.482;11.238;2024-03-02T11:43:21;96998.59;;;10.74;75.40
83635;BME280;73596;49.482;11.238;2024-03-02T11:45:46;96999.66;;;10.91;75.91
83635;BME280;73596;49.482;11.238;2024-03-02T11:48:14;96998.84;;;11.09;73.69
83635;BME280;73596;49.482;11.238;2024-03-02T11:50:41;96992.72;;;11.01;73.52
83635;BME280;73596;49.482;11.238;2024-03-02T11:53:08;96995.72;;;10.96;71.99
83635;BME280;73596;49.482;11.238;2024-03-02T11:55:38;96991.78;;;10.92;75.41
83635;BME280;73596;49.482;11.238;2024-03-02T11:58:04;96990.97;;;10.92;75.48
83635;BME280;73596;49.482;11.238;2024-03-02T12:00:30;96978.47;;;10.87;74.50
83635;BME280;73596;49.482;11.238;2024-03-02T12:03:04;96973.69;;;11.02;74.26
83635;BME280;73596;49.482;11.238;2024-03-02T12:05:30;96971.19;;;11.19;71.75
83635;BME280;73596;49.482;11.238;2024-03-02T12:08:00;96971.56;;;11.34;71.85
83635;BME280;73596;49.482;11.238;2024-03-02T12:10:25;96970.03;;;11.41;74.14
83635;BME280;73596;49.482;11.238;2024-03-02T12:13:02;96974.38;;;11.50;71.72
83635;BME280;73596;49.482;11.238;2024-03-02T12:15:29;96976.97;;;11.50;71.84
83635;BME280;73596;49.482;11.238;2024-03-02T12:17:57;96972.31;;;11.54;73.34
83635;BME280;73596;49.482;11.238;2024-03-02T12:20:23;96966.63;;;11.50;72.85
83635;BME280;73596;49.482;11.238;2024-03-02T12:22:52;96969.25;;;11.40;73.06
83635;BME280;73596;49.482;11.238;2024-03-02T12:25:22;96968.75;;;11.27;73.42
83635;BME280;73596;49.482;11.238;2024-03-02T12:27:54;96969.13;;;11.32;74.32
83635;BME280;73596;49.482;11.238;2024-03-02T12:30:20;96959.19;;;11.37;73.13
83635;BME280;73596;49.482;11.238;2024-03-02T12:32:46;96962.59;;;11.38;71.00
83635;BME280;73596;49.482;11.238;2024-03-02T12:35:12;96952.38;;;11.36;70.91
83635;BME280;73596;49.482;11.238;2024-03-02T12:37:50;96963.41;;;11.29;70.16
83635;BME280;73596;49.482;11.238;2024-03-02T12:40:17;96956.50;;;11.20;69.93
83635;BME280;73596;49.482;11.238;2024-03-02T12:42:44;96951.22;;;11.12;68.45
83635;BME280;73596;49.482;11.238;2024-03-02T12:45:11;96946.19;;;11.20;71.24
83635;BME280;73596;49.482;11.238;2024-03-02T12:47:37;96946.00;;;11.31;70.71
83635;BME280;73596;49.482;11.238;2024-03-02T12:50:04;96949.00;;;11.26;71.64
83635;BME280;73596;49.482;11.238;2024-03-02T12:52:30;96945.91;;;11.23;73.65